Time;durP1;ratioP1;P1;durP2;ratioP2;P2;SDS_P1;SDS_P2;PMS_P1;PMS_P2;Temp;Humidity;BMP_temperature;BMP_pressure;BME280_temperature;BME280_humidity;BME280_pressure;Samples;Min_cycle;Max_cycle;Signal;HPM_P1;HPM_P2
2022/10/15 00:00:43;;;;;;;1.52;0.80;;;;;;;;;;5166144;27;20224;-78
2022/10/15 00:03:10;;;;;;;2.45;0.70;;;;;;;;;;5156812;27;20279;-78
2022/10/15 00:05:38;;;;;;;2.15;0.90;;;;;;;;;;5156472;27;20275;-78
2022/10/15 00:08:05;;;;;;;1.80;0.90;;;;;;;;;;5164886;27;20311;-78
2022/10/15 00:10:32;;;;;;;1.15;0.80;;;;;;;;;;5156024;27;20303;-78
2022/10/15 00:13:00;;;;;;;2.42;0.80;;;;;;;;;;5156881;27;20235;-78
2022/10/15 00:15:28;;;;;;;0.70;0.70;;;;;;;;;;5156717;27;20249;-78
2022/10/15 00:17:56;;;;;;;1.55;0.80;;;;;;;;;;5156588;27;20690;-78
2022/10/15 00:20:23;;;;;;;2.78;0.80;;;;;;;;;;5156612;27;20275;-78
2022/10/15 00:22:50;;;;;;;2.53;0.70;;;;;;;;;;5157481;27;20232;-78
2022/10/15 00:25:17;;;;;;;1.60;0.70;;;;;;;;;;5156140;27;20235;-78
2022/10/15 00:27:45;;;;;;;1.00;0.90;;;;;;;;;;5156479;27;20250;-78
2022/10/15 00:30:12;;;;;;;2.08;0.90;;;;;;;;;;5156186;27;20227;-78
2022/10/15 00:32:41;;;;;;;1.30;0.70;;;;;;;;;;5156763;27;20283;-78
2022/10/15 00:35:08;;;;;;;0.75;0.50;;;;;;;;;;5155927;27;20284;-78
2022/10/15 00:37:35;;;;;;;0.75;0.55;;;;;;;;;;5156443;27;20287;-78
2022/10/15 00:40:03;;;;;;;1.95;0.50;;;;;;;;;;5156865;27;20279;-78
2022/10/15 00:42:30;;;;;;;1.27;0.60;;;;;;;;;;5155988;27;20200;-78
2022/10/15 00:44:58;;;;;;;0.82;0.47;;;;;;;;;;5156043;27;20630;-78
2022/10/15 00:47:29;;;;;;;0.65;0.50;;;;;;;;;;5155922;27;20271;-78
2022/10/15 00:50:01;;;;;;;1.42;0.50;;;;;;;;;;5147975;27;20303;-78
2022/10/15 00:52:33;;;;;;;1.05;0.50;;;;;;;;;;5164777;27;20232;-78
2022/10/15 00:55:01;;;;;;;1.92;0.40;;;;;;;;;;5177052;27;20223;-78
2022/10/15 00:57:29;;;;;;;1.05;0.40;;;;;;;;;;5161657;27;20201;-78
2022/10/15 00:59:59;;;;;;;1.38;0.50;;;;;;;;;;5155109;27;20275;-78
2022/10/15 01:02:26;;;;;;;0.63;0.40;;;;;;;;;;5154929;27;20698;-77
2022/10/15 01:04:54;;;;;;;2.72;0.40;;;;;;;;;;5156222;27;20284;-78
2022/10/15 01:07:22;;;;;;;1.92;0.57;;;;;;;;;;5147069;27;20283;-78
2022/10/15 01:09:49;;;;;;;1.05;0.40;;;;;;;;;;5154424;27;20259;-78
2022/10/15 01:12:20;;;;;;;1.40;0.40;;;;;;;;;;5155948;27;20228;-78
2022/10/15 01:14:52;;;;;;;1.40;0.50;;;;;;;;;;5155770;27;20285;-78
2022/10/15 01:17:22;;;;;;;0.93;0.30;;;;;;;;;;5168260;27;20227;-78
2022/10/15 01:19:59;;;;;;;2.03;0.30;;;;;;;;;;5152219;27;20194;-78
2022/10/15 01:22:37;;;;;;;0.77;0.40;;;;;;;;;;5155131;27;20283;-78
2022/10/15 01:25:13;;;;;;;1.30;0.25;;;;;;;;;;5155316;27;20283;-78
2022/10/15 01:27:42;;;;;;;0.25;0.22;;;;;;;;;;5155468;27;20224;-78
2022/10/15 01:30:17;;;;;;;0.52;0.25;;;;;;;;;;5155151;27;20311;-77
2022/10/15 01:32:48;;;;;;;2.05;0.43;;;;;;;;;;5155151;27;20274;-78
2022/10/15 01:35:21;;;;;;;1.23;0.40;;;;;;;;;;5154346;27;20307;-78
2022/10/15 01:37:53;;;;;;;0.73;0.30;;;;;;;;;;5164573;27;20235;-78
2022/10/15 01:40:21;;;;;;;1.83;0.32;;;;;;;;;;5155185;27;20292;-78
2022/10/15 01:42:52;;;;;;;0.82;0.35;;;;;;;;;;5155376;27;20234;-78
2022/10/15 01:45:24;;;;;;;0.80;0.25;;;;;;;;;;5154809;27;20548;-78
2022/10/15 01:47:54;;;;;;;2.90;0.50;;;;;;;;;;5155307;27;20196;-78
2022/10/15 01:50:23;;;;;;;3.33;0.50;;;;;;;;;;5155017;27;20299;-78
2022/10/15 01:52:51;;;;;;;1.83;0.35;;;;;;;;;;5162551;27;20200;-78
2022/10/15 01:55:20;;;;;;;2.95;0.47;;;;;;;;;;5160365;27;20200;-78
2022/10/15 01:57:48;;;;;;;2.17;0.35;;;;;;;;;;5154643;27;20196;-78
2022/10/15 02:00:15;;;;;;;2.13;0.47;;;;;;;;;;5154891;27;20216;-78
2022/10/15 02:02:44;;;;;;;3.33;0.60;;;;;;;;;;5154688;27;20232;-78
2022/10/15 02:05:13;;;;;;;4.40;0.75;;;;;;;;;;5154879;27;20604;-78
2022/10/15 02:07:44;;;;;;;3.60;0.60;;;;;;;;;;5154325;27;20279;-78
2022/10/15 02:10:15;;;;;;;1.75;0.60;;;;;;;;;;5153984;27;20224;-78
2022/10/15 02:12:49;;;;;;;2.78;0.65;;;;;;;;;;5154879;27;20228;-78
2022/10/15 02:15:19;;;;;;;2.67;0.50;;;;;;;;;;5159783;27;20235;-78
2022/10/15 02:17:51;;;;;;;1.45;0.40;;;;;;;;;;5155108;27;20283;-78
2022/10/15 02:20:21;;;;;;;2.10;0.60;;;;;;;;;;5159986;27;20746;-78
2022/10/15 02:22:49;;;;;;;2.58;0.80;;;;;;;;;;5175180;27;20562;-78
2022/10/15 02:25:19;;;;;;;2.90;0.60;;;;;;;;;;5171432;27;20280;-78
2022/10/15 02:27:48;;;;;;;1.52;0.70;;;;;;;;;;5175102;27;20644;-78
2022/10/15 02:30:16;;;;;;;5.50;1.00;;;;;;;;;;5173874;27;20778;-78
2022/10/15 02:32:47;;;;;;;1.90;0.60;;;;;;;;;;5154456;27;20232;-78
2022/10/15 02:35:15;;;;;;;1.42;0.70;;;;;;;;;;5152651;27;20228;-78
2022/10/15 02:37:45;;;;;;;1.70;0.57;;;;;;;;;;5153608;27;20287;-78
2022/10/15 02:40:12;;;;;;;1.92;0.70;;;;;;;;;;5154102;27;20212;-78
2022/10/15 02:42:40;;;;;;;3.10;0.77;;;;;;;;;;5154375;27;20232;-78
2022/10/15 02:45:08;;;;;;;2.80;0.70;;;;;;;;;;5153618;27;20294;-78
2022/10/15 02:47:35;;;;;;;4.72;0.80;;;;;;;;;;5154758;27;20279;-78
2022/10/15 02:50:02;;;;;;;3.20;0.60;;;;;;;;;;5163437;27;20311;-79
2022/10/15 02:52:30;;;;;;;3.78;0.80;;;;;;;;;;5153103;27;20235;-78
2022/10/15 02:54:58;;;;;;;3.38;0.80;;;;;;;;;;5161098;27;20283;-78
2022/10/15 02:57:25;;;;;;;4.25;0.98;;;;;;;;;;5174905;27;20283;-78
2022/10/15 02:59:52;;;;;;;3.90;0.90;;;;;;;;;;5175279;27;20234;-78
2022/10/15 03:02:19;;;;;;;3.03;0.70;;;;;;;;;;5168602;27;20275;-78
2022/10/15 03:04:46;;;;;;;2.00;0.90;;;;;;;;;;5152853;27;20231;-78
2022/10/15 03:07:14;;;;;;;4.85;0.98;;;;;;;;;;5153043;27;20271;-78
2022/10/15 03:09:42;;;;;;;4.93;1.10;;;;;;;;;;5152816;27;20236;-78
2022/10/15 03:12:09;;;;;;;4.22;0.90;;;;;;;;;;5153801;27;20279;-78
2022/10/15 03:14:37;;;;;;;4.75;1.00;;;;;;;;;;5154116;27;20224;-78
2022/10/15 03:17:04;;;;;;;6.10;0.95;;;;;;;;;;5154100;27;20250;-78
2022/10/15 03:19:31;;;;;;;6.07;0.90;;;;;;;;;;5153591;27;20231;-78
2022/10/15 03:21:58;;;;;;;4.22;1.20;;;;;;;;;;5155457;27;20196;-78
2022/10/15 03:24:25;;;;;;;4.97;1.08;;;;;;;;;;5154237;27;20204;-78
2022/10/15 03:26:54;;;;;;;4.72;0.93;;;;;;;;;;5153222;27;20287;-78
2022/10/15 03:29:21;;;;;;;5.28;1.00;;;;;;;;;;5156837;27;20252;-78
2022/10/15 03:31:48;;;;;;;5.85;1.00;;;;;;;;;;5153461;27;20303;-78
2022/10/15 03:34:15;;;;;;;3.75;0.85;;;;;;;;;;5156114;27;20740;-78
2022/10/15 03:36:43;;;;;;;9.27;1.02;;;;;;;;;;5157152;27;20707;-78
2022/10/15 03:39:11;;;;;;;4.65;1.10;;;;;;;;;;5157425;27;20635;-78
2022/10/15 03:41:38;;;;;;;8.05;1.42;;;;;;;;;;5157585;27;20660;-78
2022/10/15 03:44:08;;;;;;;3.78;0.75;;;;;;;;;;5157644;27;20279;-79
2022/10/15 03:46:35;;;;;;;6.63;1.00;;;;;;;;;;5164204;27;20624;-78
2022/10/15 03:49:02;;;;;;;8.77;1.27;;;;;;;;;;5163132;27;20224;-78
2022/10/15 03:51:29;;;;;;;7.10;1.10;;;;;;;;;;5156758;27;20256;-78
2022/10/15 03:53:57;;;;;;;4.22;0.90;;;;;;;;;;5159622;27;20731;-78
2022/10/15 03:56:24;;;;;;;7.60;0.95;;;;;;;;;;5136532;27;20259;-78
2022/10/15 03:58:51;;;;;;;5.07;1.00;;;;;;;;;;5136493;27;20284;-78
2022/10/15 04:01:20;;;;;;;6.97;1.20;;;;;;;;;;5155614;27;20239;-78
2022/10/15 04:03:47;;;;;;;5.93;1.17;;;;;;;;;;5155745;27;20645;-78
2022/10/15 04:06:14;;;;;;;4.57;1.15;;;;;;;;;;5156781;27;20279;-78
2022/10/15 04:08:41;;;;;;;7.13;1.20;;;;;;;;;;5156505;27;20234;-78
2022/10/15 04:11:08;;;;;;;2.83;0.80;;;;;;;;;;5157133;27;20299;-78
2022/10/15 04:13:35;;;;;;;3.42;0.93;;;;;;;;;;5156562;27;20295;-78
2022/10/15 04:16:04;;;;;;;7.10;1.27;;;;;;;;;;5157020;27;20284;-78
2022/10/15 04:18:33;;;;;;;5.75;1.17;;;;;;;;;;5156661;27;20279;-78
2022/10/15 04:21:00;;;;;;;5.78;1.00;;;;;;;;;;5154966;27;20730;-78
2022/10/15 04:23:28;;;;;;;6.30;1.83;;;;;;;;;;5156528;27;20276;-78
2022/10/15 04:25:59;;;;;;;8.15;1.38;;;;;;;;;;5169481;27;20232;-78
2022/10/15 04:28:26;;;;;;;8.25;1.33;;;;;;;;;;5174830;27;20218;-78
2022/10/15 04:30:57;;;;;;;5.00;1.17;;;;;;;;;;5156748;27;20310;-78
2022/10/15 04:33:24;;;;;;;5.82;1.42;;;;;;;;;;5155776;27;20287;-78
2022/10/15 04:35:59;;;;;;;4.90;1.20;;;;;;;;;;5159313;27;20279;-78
2022/10/15 04:38:26;;;;;;;4.90;1.02;;;;;;;;;;5177616;27;20223;-78
2022/10/15 04:40:59;;;;;;;4.20;0.95;;;;;;;;;;5160816;27;20224;-78
2022/10/15 04:43:26;;;;;;;5.38;1.08;;;;;;;;;;5150491;27;20279;-78
2022/10/15 04:45:56;;;;;;;4.13;0.93;;;;;;;;;;5154498;27;20224;-78
2022/10/15 04:48:23;;;;;;;3.83;1.15;;;;;;;;;;5155507;27;20275;-78
2022/10/15 04:50:50;;;;;;;2.88;1.38;;;;;;;;;;5155576;27;20303;-78
2022/10/15 04:53:18;;;;;;;3.13;1.15;;;;;;;;;;5155703;27;20284;-78
2022/10/15 04:55:46;;;;;;;3.55;1.20;;;;;;;;;;5154963;27;20277;-78
2022/10/15 04:58:13;;;;;;;7.28;1.23;;;;;;;;;;5155858;27;20292;-78
2022/10/15 05:00:40;;;;;;;4.95;1.05;;;;;;;;;;5155738;27;20681;-79
2022/10/15 05:03:07;;;;;;;3.78;1.25;;;;;;;;;;5164936;27;20192;-78
2022/10/15 05:05:35;;;;;;;4.70;1.25;;;;;;;;;;5168487;27;20646;-78
2022/10/15 05:08:02;;;;;;;4.35;1.27;;;;;;;;;;5155108;27;20315;-78
2022/10/15 05:10:31;;;;;;;3.63;1.42;;;;;;;;;;5155480;27;20311;-78
2022/10/15 05:12:58;;;;;;;4.28;1.08;;;;;;;;;;5155660;27;20644;-78
2022/10/15 05:15:26;;;;;;;2.92;1.00;;;;;;;;;;5155025;27;21013;-78
2022/10/15 05:17:53;;;;;;;2.78;0.90;;;;;;;;;;5155035;27;20553;-78
2022/10/15 05:20:20;;;;;;;3.03;0.80;;;;;;;;;;5155081;27;20200;-79
2022/10/15 05:22:48;;;;;;;2.75;0.80;;;;;;;;;;5155547;27;20247;-78
2022/10/15 05:25:15;;;;;;;3.30;0.90;;;;;;;;;;5155656;27;20358;-78
2022/10/15 05:27:43;;;;;;;2.47;0.77;;;;;;;;;;5155879;27;20235;-78
2022/10/15 05:30:11;;;;;;;5.37;0.90;;;;;;;;;;5154905;27;20248;-78
2022/10/15 05:32:38;;;;;;;3.20;0.97;;;;;;;;;;5155204;27;20653;-78
2022/10/15 05:35:06;;;;;;;1.88;0.70;;;;;;;;;;5154562;27;20220;-78
2022/10/15 05:37:33;;;;;;;2.63;0.60;;;;;;;;;;5155306;27;20239;-78
2022/10/15 05:40:00;;;;;;;3.60;0.90;;;;;;;;;;5155149;27;20750;-78
2022/10/15 05:42:27;;;;;;;1.23;0.83;;;;;;;;;;5155449;27;20600;-78
2022/10/15 05:44:56;;;;;;;2.50;0.90;;;;;;;;;;5168102;27;20227;-78
2022/10/15 05:47:23;;;;;;;2.33;0.80;;;;;;;;;;5144270;27;20279;-78
2022/10/15 05:49:50;;;;;;;2.03;0.70;;;;;;;;;;5154665;27;20192;-78
2022/10/15 05:52:17;;;;;;;1.83;0.63;;;;;;;;;;5156994;27;20323;-78
2022/10/15 05:54:45;;;;;;;2.40;0.83;;;;;;;;;;5161453;27;20278;-78
2022/10/15 05:57:12;;;;;;;1.80;0.77;;;;;;;;;;5172686;27;20290;-78
2022/10/15 05:59:39;;;;;;;2.07;0.70;;;;;;;;;;5154420;27;20284;-78
2022/10/15 06:02:09;;;;;;;2.60;1.00;;;;;;;;;;5155626;27;20280;-78
2022/10/15 06:04:36;;;;;;;3.23;0.90;;;;;;;;;;5154053;27;20227;-78
2022/10/15 06:07:03;;;;;;;1.80;0.90;;;;;;;;;;5154423;27;20283;-78
2022/10/15 06:09:31;;;;;;;2.63;1.17;;;;;;;;;;5153523;27;20224;-79
2022/10/15 06:11:58;;;;;;;1.50;1.00;;;;;;;;;;5154869;27;20220;-78
2022/10/15 06:14:25;;;;;;;2.70;0.90;;;;;;;;;;5163772;27;20283;-78
2022/10/15 06:16:53;;;;;;;1.23;0.80;;;;;;;;;;5174509;27;20282;-78
2022/10/15 06:19:22;;;;;;;1.97;1.10;;;;;;;;;;5175468;27;20192;-78
2022/10/15 06:21:49;;;;;;;0.97;0.70;;;;;;;;;;5154910;27;20724;-78
2022/10/15 06:24:16;;;;;;;2.00;0.80;;;;;;;;;;5154708;27;20220;-78
2022/10/15 06:26:43;;;;;;;1.57;0.67;;;;;;;;;;5154443;27;20279;-78
2022/10/15 06:29:11;;;;;;;1.30;0.70;;;;;;;;;;5154386;27;20307;-78
2022/10/15 06:31:38;;;;;;;1.27;0.70;;;;;;;;;;5154160;27;20291;-78
2022/10/15 06:34:05;;;;;;;1.60;0.70;;;;;;;;;;5154085;27;20279;-78
2022/10/15 06:36:33;;;;;;;1.90;0.60;;;;;;;;;;5153897;27;20219;-78
2022/10/15 06:39:01;;;;;;;1.57;0.67;;;;;;;;;;5154011;27;20385;-78
2022/10/15 06:41:28;;;;;;;1.47;0.60;;;;;;;;;;5157285;27;20240;-78
2022/10/15 06:43:55;;;;;;;1.30;0.50;;;;;;;;;;5155846;27;20235;-78
2022/10/15 06:46:22;;;;;;;1.67;0.80;;;;;;;;;;5157093;27;20300;-78
2022/10/15 06:48:50;;;;;;;2.10;0.40;;;;;;;;;;5154001;27;20232;-78
2022/10/15 06:51:17;;;;;;;0.97;0.60;;;;;;;;;;5153317;27;20687;-78
2022/10/15 06:53:46;;;;;;;0.40;0.40;;;;;;;;;;5153615;27;20638;-78
2022/10/15 06:56:13;;;;;;;1.47;0.30;;;;;;;;;;5153359;27;20228;-78
2022/10/15 06:58:42;;;;;;;0.93;0.30;;;;;;;;;;5153456;27;20292;-78
2022/10/15 07:01:09;;;;;;;1.43;0.40;;;;;;;;;;5159646;27;20195;-78
2022/10/15 07:03:37;;;;;;;0.37;0.30;;;;;;;;;;5174661;27;20199;-78
2022/10/15 07:06:05;;;;;;;0.77;0.30;;;;;;;;;;5174823;27;20667;-78
2022/10/15 07:08:33;;;;;;;0.60;0.30;;;;;;;;;;5156342;27;20263;-78
2022/10/15 07:11:03;;;;;;;0.40;0.30;;;;;;;;;;5157858;27;20320;-78
2022/10/15 07:13:30;;;;;;;0.53;0.30;;;;;;;;;;5137445;27;20287;-78
2022/10/15 07:15:58;;;;;;;0.60;0.40;;;;;;;;;;5137501;27;20228;-78
2022/10/15 07:18:25;;;;;;;0.80;0.47;;;;;;;;;;5137488;27;20197;-78
2022/10/15 07:20:52;;;;;;;3.13;0.60;;;;;;;;;;5159436;27;20250;-78
2022/10/15 07:23:19;;;;;;;0.50;0.40;;;;;;;;;;5173479;27;20227;-78
2022/10/15 07:25:46;;;;;;;0.47;0.40;;;;;;;;;;5161360;27;20224;-78
2022/10/15 07:28:15;;;;;;;1.87;0.53;;;;;;;;;;5157407;27;20236;-78
2022/10/15 07:30:42;;;;;;;0.87;0.50;;;;;;;;;;5174197;27;20279;-78
2022/10/15 07:33:10;;;;;;;1.17;0.50;;;;;;;;;;5178414;27;20288;-78
2022/10/15 07:35:37;;;;;;;0.60;0.53;;;;;;;;;;5178352;27;20260;-78
2022/10/15 07:38:05;;;;;;;0.47;0.40;;;;;;;;;;5166819;27;20257;-78
2022/10/15 07:40:32;;;;;;;1.60;0.47;;;;;;;;;;5156904;27;20683;-78
2022/10/15 07:42:59;;;;;;;1.10;0.40;;;;;;;;;;5156399;27;20640;-79
2022/10/15 07:45:28;;;;;;;1.00;0.40;;;;;;;;;;5156725;27;20730;-79
2022/10/15 07:47:55;;;;;;;0.77;0.40;;;;;;;;;;5156358;27;20240;-80
2022/10/15 07:50:23;;;;;;;1.57;0.40;;;;;;;;;;5156639;27;20224;-80
2022/10/15 07:52:50;;;;;;;1.27;0.40;;;;;;;;;;5151395;27;20262;-79
2022/10/15 07:55:17;;;;;;;0.77;0.50;;;;;;;;;;5155916;27;20208;-80
2022/10/15 07:57:44;;;;;;;0.95;0.50;;;;;;;;;;5159482;27;20220;-79
2022/10/15 08:00:12;;;;;;;0.63;0.35;;;;;;;;;;5160330;27;20283;-79
2022/10/15 08:02:41;;;;;;;0.50;0.40;;;;;;;;;;5154757;27;20223;-80
2022/10/15 08:05:08;;;;;;;0.80;0.50;;;;;;;;;;5155450;27;20234;-79
2022/10/15 08:07:36;;;;;;;1.85;0.40;;;;;;;;;;5155167;27;20648;-80
2022/10/15 08:10:04;;;;;;;1.02;0.50;;;;;;;;;;5152971;27;20228;-79
2022/10/15 08:12:31;;;;;;;3.70;0.70;;;;;;;;;;5148074;27;20799;-79
2022/10/15 08:14:58;;;;;;;1.55;0.50;;;;;;;;;;5149746;27;20200;-79
2022/10/15 08:17:25;;;;;;;1.67;0.50;;;;;;;;;;5158790;27;20278;-79
2022/10/15 08:19:54;;;;;;;1.98;0.50;;;;;;;;;;5160368;27;20227;-79
2022/10/15 08:22:22;;;;;;;1.38;0.47;;;;;;;;;;5159433;27;20203;-79
2022/10/15 08:24:49;;;;;;;0.45;0.40;;;;;;;;;;5154934;27;20244;-79
2022/10/15 08:27:16;;;;;;;0.60;0.40;;;;;;;;;;5153646;27;20291;-79
2022/10/15 08:29:43;;;;;;;1.05;0.40;;;;;;;;;;5152502;27;20303;-79
2022/10/15 08:32:10;;;;;;;0.50;0.40;;;;;;;;;;5153713;27;20307;-79
2022/10/15 08:34:37;;;;;;;2.15;0.47;;;;;;;;;;5161300;27;20626;-79
2022/10/15 08:37:06;;;;;;;0.88;0.40;;;;;;;;;;5169142;27;20731;-79
2022/10/15 08:39:33;;;;;;;0.60;0.50;;;;;;;;;;5140528;27;20279;-79
2022/10/15 08:42:02;;;;;;;0.50;0.50;;;;;;;;;;5145754;27;20228;-79
2022/10/15 08:44:31;;;;;;;1.92;0.50;;;;;;;;;;5153982;27;20196;-79
2022/10/15 08:47:00;;;;;;;0.40;0.40;;;;;;;;;;5160561;27;20232;-80
2022/10/15 08:49:43;;;;;;;0.93;0.50;;;;;;;;;;5154888;27;20583;-80
2022/10/15 08:52:17;;;;;;;0.50;0.40;;;;;;;;;;5139275;27;20263;-80
2022/10/15 08:54:44;;;;;;;1.25;0.47;;;;;;;;;;5149809;27;20224;-79
2022/10/15 08:57:17;;;;;;;0.73;0.38;;;;;;;;;;5153706;27;20299;-80
2022/10/15 08:59:46;;;;;;;1.15;0.40;;;;;;;;;;5150345;27;20207;-79
2022/10/15 09:02:16;;;;;;;1.95;0.50;;;;;;;;;;5148809;27;20221;-79
2022/10/15 09:04:49;;;;;;;0.77;0.40;;;;;;;;;;5151196;27;20236;-79
2022/10/15 09:07:20;;;;;;;0.40;0.32;;;;;;;;;;5155115;27;20279;-80
2022/10/15 09:09:49;;;;;;;0.55;0.40;;;;;;;;;;5151990;27;20311;-80
2022/10/15 09:12:23;;;;;;;0.65;0.40;;;;;;;;;;5140781;27;20224;-80
2022/10/15 09:14:50;;;;;;;0.82;0.50;;;;;;;;;;5152700;27;20365;-80
2022/10/15 09:17:21;;;;;;;0.70;0.50;;;;;;;;;;5153893;27;20694;-80
2022/10/15 09:19:50;;;;;;;0.40;0.30;;;;;;;;;;5153343;27;20552;-80
2022/10/15 09:22:19;;;;;;;1.65;0.40;;;;;;;;;;5141768;27;20196;-80
2022/10/15 09:24:47;;;;;;;0.32;0.30;;;;;;;;;;5153536;27;20210;-80
2022/10/15 09:27:26;;;;;;;0.50;0.30;;;;;;;;;;5148961;27;20350;-80
2022/10/15 09:29:58;;;;;;;1.30;0.47;;;;;;;;;;5150988;27;20302;-80
2022/10/15 09:32:30;;;;;;;1.90;0.50;;;;;;;;;;5150295;27;20295;-80
2022/10/15 09:34:59;;;;;;;1.95;0.80;;;;;;;;;;5155358;27;20621;-80
2022/10/15 09:37:30;;;;;;;3.85;1.00;;;;;;;;;;5151319;27;20203;-81
2022/10/15 09:40:03;;;;;;;1.65;1.10;;;;;;;;;;5146524;27;20312;-80
2022/10/15 09:42:31;;;;;;;1.48;1.00;;;;;;;;;;5149657;27;20303;-79
2022/10/15 09:45:00;;;;;;;1.77;1.15;;;;;;;;;;5153439;27;20200;-80
2022/10/15 09:47:29;;;;;;;2.38;0.80;;;;;;;;;;5154234;27;20223;-79
2022/10/15 09:49:56;;;;;;;0.68;0.60;;;;;;;;;;5160993;27;20342;-80
2022/10/15 09:52:27;;;;;;;0.60;0.60;;;;;;;;;;5157628;27;20695;-80
2022/10/15 09:55:02;;;;;;;0.70;0.50;;;;;;;;;;5152269;27;20239;-81
2022/10/15 09:57:31;;;;;;;1.83;0.60;;;;;;;;;;5153996;27;20232;-79
2022/10/15 10:00:00;;;;;;;2.00;1.00;;;;;;;;;;5161796;27;20283;-79
2022/10/15 10:02:28;;;;;;;1.60;0.90;;;;;;;;;;5151818;27;20782;-79
2022/10/15 10:04:55;;;;;;;0.88;0.60;;;;;;;;;;5151939;27;20292;-79
2022/10/15 10:07:30;;;;;;;1.40;0.68;;;;;;;;;;5151166;27;20292;-79
2022/10/15 10:10:01;;;;;;;1.05;0.70;;;;;;;;;;5152047;27;20315;-79
2022/10/15 10:12:29;;;;;;;1.35;0.98;;;;;;;;;;5153633;27;20288;-79
2022/10/15 10:14:58;;;;;;;1.63;1.10;;;;;;;;;;5162783;27;20282;-79
2022/10/15 10:17:25;;;;;;;1.95;1.73;;;;;;;;;;5152430;27;20294;-78
2022/10/15 10:20:13;;;;;;;4.65;3.33;;;;;;;;;;5154690;27;20288;-79
2022/10/15 10:22:43;;;;;;;2.95;2.30;;;;;;;;;;5150436;27;20234;-78
2022/10/15 10:25:24;;;;;;;1.67;1.10;;;;;;;;;;5150059;27;20197;-78
2022/10/15 10:27:51;;;;;;;2.78;0.50;;;;;;;;;;5145794;27;20283;-80
2022/10/15 10:30:18;;;;;;;1.52;0.55;;;;;;;;;;5152872;27;20220;-80
2022/10/15 10:32:46;;;;;;;0.50;0.30;;;;;;;;;;5152395;27;20564;-79
2022/10/15 10:35:20;;;;;;;0.75;0.30;;;;;;;;;;5153456;27;20627;-80
2022/10/15 10:37:47;;;;;;;1.42;0.40;;;;;;;;;;5160742;27;20658;-80
2022/10/15 10:40:23;;;;;;;1.67;0.60;;;;;;;;;;5159223;27;20283;-80
2022/10/15 10:43:09;;;;;;;1.73;0.47;;;;;;;;;;5151954;27;20642;-80
2022/10/15 10:45:36;;;;;;;0.50;0.40;;;;;;;;;;5155136;27;20288;-80
2022/10/15 10:48:18;;;;;;;1.83;0.50;;;;;;;;;;5153008;27;20286;-80
2022/10/15 10:50:45;;;;;;;1.50;0.50;;;;;;;;;;5150807;27;20287;-79
2022/10/15 10:53:20;;;;;;;1.50;0.40;;;;;;;;;;5139727;27;20224;-79
2022/10/15 10:55:49;;;;;;;0.38;0.30;;;;;;;;;;5153651;27;20286;-78
2022/10/15 10:58:19;;;;;;;1.77;0.45;;;;;;;;;;5148039;27;20227;-79
2022/10/15 11:00:47;;;;;;;1.45;0.80;;;;;;;;;;5150473;27;20196;-80
2022/10/15 11:03:21;;;;;;;1.20;0.80;;;;;;;;;;5146559;27;20618;-80
2022/10/15 11:05:51;;;;;;;1.20;0.80;;;;;;;;;;5148282;27;20558;-79
2022/10/15 11:08:21;;;;;;;1.23;0.80;;;;;;;;;;5152085;27;20262;-79
2022/10/15 11:10:53;;;;;;;2.70;0.80;;;;;;;;;;5151847;27;20220;-79
2022/10/15 11:13:30;;;;;;;1.75;0.60;;;;;;;;;;5150341;27;20247;-79
2022/10/15 11:16:00;;;;;;;1.77;0.65;;;;;;;;;;5152393;27;20686;-79
2022/10/15 11:18:31;;;;;;;1.27;0.68;;;;;;;;;;5152736;27;20570;-78
2022/10/15 11:21:02;;;;;;;1.67;0.70;;;;;;;;;;5152344;27;20287;-79
2022/10/15 11:23:47;;;;;;;1.35;0.70;;;;;;;;;;5150170;27;20236;-79
2022/10/15 11:26:23;;;;;;;1.58;0.60;;;;;;;;;;5151304;27;20309;-79
2022/10/15 11:28:55;;;;;;;1.90;0.70;;;;;;;;;;5151127;27;20218;-79
2022/10/15 11:31:26;;;;;;;1.00;0.70;;;;;;;;;;5151423;27;20235;-79
2022/10/15 11:33:59;;;;;;;1.73;0.82;;;;;;;;;;5151198;27;20212;-79
2022/10/15 11:36:36;;;;;;;0.70;0.70;;;;;;;;;;5148376;27;20279;-79
2022/10/15 11:39:14;;;;;;;2.95;0.90;;;;;;;;;;5152857;27;20227;-79
2022/10/15 11:41:46;;;;;;;1.73;0.82;;;;;;;;;;5153376;27;20232;-79
2022/10/15 11:44:22;;;;;;;1.75;1.10;;;;;;;;;;5153695;27;20246;-79
2022/10/15 11:46:52;;;;;;;1.80;1.25;;;;;;;;;;5151180;27;20196;-79
2022/10/15 11:49:26;;;;;;;1.52;0.75;;;;;;;;;;5152595;27;20228;-79
2022/10/15 11:52:05;;;;;;;1.23;0.68;;;;;;;;;;5152698;27;20196;-79
2022/10/15 11:54:35;;;;;;;2.80;1.00;;;;;;;;;;5155191;27;20196;-79
2022/10/15 11:57:04;;;;;;;0.80;0.70;;;;;;;;;;5156429;27;20226;-79
2022/10/15 11:59:34;;;;;;;1.27;0.80;;;;;;;;;;5157334;27;20228;-79
2022/10/15 12:02:03;;;;;;;1.27;0.57;;;;;;;;;;5158235;27;20283;-80
2022/10/15 12:04:33;;;;;;;1.15;0.60;;;;;;;;;;5162976;27;20219;-80
2022/10/15 12:07:02;;;;;;;1.65;0.80;;;;;;;;;;5157984;27;20604;-80
2022/10/15 12:09:30;;;;;;;1.13;0.50;;;;;;;;;;5156983;27;20255;-82
2022/10/15 12:12:02;;;;;;;1.65;0.90;;;;;;;;;;5155754;27;20720;-81
2022/10/15 12:14:35;;;;;;;1.77;1.00;;;;;;;;;;5152650;27;20686;-79
2022/10/15 12:17:05;;;;;;;1.08;0.60;;;;;;;;;;5154026;27;20200;-80
2022/10/15 12:19:38;;;;;;;1.08;0.60;;;;;;;;;;5160662;27;20292;-80
2022/10/15 12:22:10;;;;;;;2.33;0.60;;;;;;;;;;5156111;27;20268;-80
2022/10/15 12:24:55;;;;;;;1.73;0.95;;;;;;;;;;5156317;27;20216;-80
2022/10/15 12:27:24;;;;;;;1.67;0.52;;;;;;;;;;5167241;27;20280;-80
2022/10/15 12:29:53;;;;;;;1.50;1.00;;;;;;;;;;5157181;27;20247;-80
2022/10/15 12:32:24;;;;;;;1.42;0.93;;;;;;;;;;5164138;27;20227;-80
2022/10/15 12:34:55;;;;;;;1.52;0.77;;;;;;;;;;5167333;27;20224;-80
2022/10/15 12:37:24;;;;;;;1.60;0.60;;;;;;;;;;5135548;27;20258;-80
2022/10/15 12:39:55;;;;;;;2.15;0.90;;;;;;;;;;5156548;27;20310;-80
2022/10/15 12:42:25;;;;;;;1.60;0.90;;;;;;;;;;5157830;27;20295;-80
2022/10/15 12:44:54;;;;;;;1.65;0.82;;;;;;;;;;5176930;27;20217;-80
2022/10/15 12:47:36;;;;;;;2.67;1.20;;;;;;;;;;5166715;27;20235;-80
2022/10/15 12:50:04;;;;;;;2.28;1.00;;;;;;;;;;5156939;27;20287;-80
2022/10/15 12:52:49;;;;;;;2.25;1.20;;;;;;;;;;5155487;27;20654;-80
2022/10/15 12:55:21;;;;;;;3.33;1.35;;;;;;;;;;5135408;27;20197;-80
2022/10/15 12:57:52;;;;;;;3.53;1.10;;;;;;;;;;5154348;27;20232;-80
2022/10/15 13:00:32;;;;;;;1.65;0.80;;;;;;;;;;5154373;27;20196;-80
2022/10/15 13:03:08;;;;;;;1.95;1.10;;;;;;;;;;5153534;27;20196;-80
2022/10/15 13:05:36;;;;;;;2.70;1.55;;;;;;;;;;5164875;27;20288;-80
2022/10/15 13:08:05;;;;;;;1.30;0.82;;;;;;;;;;5174862;27;20200;-80
2022/10/15 13:10:35;;;;;;;1.80;1.20;;;;;;;;;;5160978;27;20221;-80
2022/10/15 13:13:04;;;;;;;2.17;0.93;;;;;;;;;;5139665;27;20319;-80
2022/10/15 13:15:33;;;;;;;1.77;0.98;;;;;;;;;;5158139;27;20286;-80
2022/10/15 13:18:01;;;;;;;1.40;0.70;;;;;;;;;;5155044;27;20201;-80
2022/10/15 13:20:31;;;;;;;2.75;1.15;;;;;;;;;;5139986;27;20217;-80
2022/10/15 13:23:08;;;;;;;1.63;0.93;;;;;;;;;;5156988;27;20282;-80
2022/10/15 13:25:35;;;;;;;1.83;0.68;;;;;;;;;;5155498;27;20204;-80
2022/10/15 13:28:02;;;;;;;1.52;0.70;;;;;;;;;;5155055;27;20228;-80
2022/10/15 13:30:29;;;;;;;1.38;0.40;;;;;;;;;;5155034;27;20267;-80
2022/10/15 13:32:59;;;;;;;2.78;0.70;;;;;;;;;;5148150;27;20284;-80
2022/10/15 13:35:29;;;;;;;1.33;0.70;;;;;;;;;;5157926;27;20283;-80
2022/10/15 13:37:56;;;;;;;2.17;0.90;;;;;;;;;;5154444;27;20209;-80
2022/10/15 13:40:25;;;;;;;1.33;0.70;;;;;;;;;;5154228;27;20228;-80
2022/10/15 13:42:59;;;;;;;1.20;0.60;;;;;;;;;;5154192;27;20279;-80
2022/10/15 13:45:26;;;;;;;1.48;0.73;;;;;;;;;;5163996;27;20210;-80
2022/10/15 13:47:54;;;;;;;1.02;0.65;;;;;;;;;;5175171;27;20248;-80
2022/10/15 13:50:25;;;;;;;1.05;0.52;;;;;;;;;;5163496;27;20204;-80
2022/10/15 13:52:53;;;;;;;1.10;0.80;;;;;;;;;;5157096;27;20279;-81
2022/10/15 13:55:23;;;;;;;0.55;0.40;;;;;;;;;;5146659;27;20292;-81
2022/10/15 13:57:51;;;;;;;2.78;0.73;;;;;;;;;;5153180;27;20196;-81
2022/10/15 14:00:23;;;;;;;2.42;0.85;;;;;;;;;;5154391;27;20196;-80
2022/10/15 14:03:05;;;;;;;1.30;0.80;;;;;;;;;;5154296;27;20630;-81
2022/10/15 14:05:34;;;;;;;2.80;0.80;;;;;;;;;;5160172;27;20282;-80
2022/10/15 14:08:01;;;;;;;1.50;0.60;;;;;;;;;;5153529;27;20249;-80
2022/10/15 14:10:29;;;;;;;1.25;0.70;;;;;;;;;;5155668;27;20197;-80
2022/10/15 14:12:56;;;;;;;1.40;0.70;;;;;;;;;;5149124;27;20291;-80
2022/10/15 14:15:41;;;;;;;2.45;0.70;;;;;;;;;;5153579;27;21625;-81
2022/10/15 14:18:09;;;;;;;1.98;0.60;;;;;;;;;;5152462;27;20648;-80
2022/10/15 14:20:38;;;;;;;2.03;0.60;;;;;;;;;;5153838;27;20304;-80
2022/10/15 14:23:05;;;;;;;0.85;0.43;;;;;;;;;;5157656;27;20278;-81
2022/10/15 14:25:32;;;;;;;1.48;0.63;;;;;;;;;;5168878;27;20239;-81
2022/10/15 14:27:59;;;;;;;1.77;0.50;;;;;;;;;;5160257;27;20287;-81
2022/10/15 14:30:31;;;;;;;1.52;0.43;;;;;;;;;;5156001;27;20730;-80
2022/10/15 14:32:58;;;;;;;1.52;0.60;;;;;;;;;;5153601;27;20256;-80
2022/10/15 14:35:29;;;;;;;1.45;0.60;;;;;;;;;;5153403;27;20196;-81
2022/10/15 14:38:02;;;;;;;2.38;0.77;;;;;;;;;;5151937;27;20227;-80
2022/10/15 14:40:29;;;;;;;1.80;0.63;;;;;;;;;;5150318;27;20287;-80
2022/10/15 14:43:03;;;;;;;1.13;0.50;;;;;;;;;;5153554;27;20264;-81
2022/10/15 14:45:32;;;;;;;1.98;0.50;;;;;;;;;;5152706;27;20278;-80
2022/10/15 14:48:00;;;;;;;1.27;0.75;;;;;;;;;;5153720;27;20228;-81
2022/10/15 14:50:29;;;;;;;2.97;0.70;;;;;;;;;;5153372;27;20279;-80
2022/10/15 14:52:57;;;;;;;2.22;0.60;;;;;;;;;;5149677;27;20235;-83
2022/10/15 14:55:32;;;;;;;1.55;0.43;;;;;;;;;;5149717;27;20303;-83